createdAt,value
2022-12-23T00:10:22.100Z,9.19
2022-12-23T00:15:31.005Z,9.19
2022-12-23T00:20:39.939Z,9.19
2022-12-23T00:35:45.310Z,9.25
2022-12-23T00:40:54.170Z,9.25
2022-12-23T00:46:03.225Z,9.25
2022-12-23T00:51:12.144Z,9.25
2022-12-23T00:56:20.941Z,9.31
2022-12-23T01:01:30.097Z,9.31
2022-12-23T01:06:39.147Z,9.31
2022-12-23T01:11:48.052Z,9.31
2022-12-23T01:16:57.025Z,9.31
2022-12-23T01:22:06.016Z,9.31
2022-12-23T01:27:14.936Z,9.31
2022-12-23T01:32:23.919Z,9.31
2022-12-23T01:37:32.919Z,9.31
2022-12-23T01:47:40.299Z,9.31
2022-12-23T01:52:49.269Z,9.38
2022-12-23T01:57:58.217Z,9.31
2022-12-23T02:03:07.431Z,9.31
2022-12-23T02:08:16.405Z,9.31
2022-12-23T02:23:21.767Z,9.31
2022-12-23T02:28:30.736Z,9.31
2022-12-23T02:33:39.852Z,9.31
2022-12-23T02:38:48.871Z,9.31
2022-12-23T02:43:57.774Z,9.31
2022-12-23T02:49:06.752Z,9.25
2022-12-23T02:54:15.698Z,9.25
2022-12-23T02:59:27.388Z,9.25
2022-12-23T03:04:36.521Z,9.19
2022-12-23T03:09:45.611Z,9.13
2022-12-23T03:14:54.456Z,9.13
2022-12-23T03:20:03.464Z,9.19
2022-12-23T03:25:12.454Z,9.19
2022-12-23T03:30:21.453Z,9.13
2022-12-23T03:35:30.534Z,9.13
2022-12-23T03:45:39.649Z,9.13
2022-12-23T03:50:46.839Z,9.06
2022-12-23T03:55:55.702Z,9
2022-12-23T04:01:04.556Z,8.88
2022-12-23T04:06:13.443Z,8.75
2022-12-23T04:11:22.440Z,8.75
2022-12-23T04:16:31.710Z,8.81
2022-12-23T04:21:40.406Z,8.81
2022-12-23T04:26:49.479Z,8.88
2022-12-23T04:31:58.564Z,8.81
2022-12-23T04:37:07.350Z,8.81
2022-12-23T04:42:16.380Z,8.81
2022-12-23T04:47:25.358Z,8.81
2022-12-23T04:52:34.473Z,8.81
2022-12-23T04:57:43.236Z,8.75
2022-12-23T05:02:52.461Z,8.81
2022-12-23T05:08:01.400Z,8.81
2022-12-23T05:13:10.372Z,8.81
2022-12-23T05:18:19.379Z,8.94
2022-12-23T05:23:28.590Z,9.13
2022-12-23T05:28:37.443Z,9.25
2022-12-23T05:33:46.505Z,9.19
2022-12-23T05:38:55.511Z,9.19
2022-12-23T05:44:04.477Z,9.13
2022-12-23T05:49:13.575Z,9.06
2022-12-23T05:54:22.449Z,9
2022-12-23T05:59:31.936Z,9
2022-12-23T06:04:40.411Z,8.94
2022-12-23T06:09:49.429Z,8.94
2022-12-23T06:29:52.990Z,8.88
2022-12-23T06:35:02.008Z,8.88
2022-12-23T06:40:11.028Z,8.81
2022-12-23T06:45:20.141Z,8.75
2022-12-23T06:55:27.122Z,8.75
2022-12-23T07:00:36.095Z,8.75
2022-12-23T07:05:45.129Z,8.75
2022-12-23T07:10:54.009Z,8.75
2022-12-23T07:16:03.004Z,8.81
2022-12-23T07:21:19.932Z,8.88
2022-12-23T07:26:20.838Z,9
2022-12-23T07:31:30.017Z,9
2022-12-23T07:41:37.103Z,8.88
2022-12-23T07:46:46.066Z,8.88
2022-12-23T07:51:55.194Z,9.06
2022-12-23T07:57:07.955Z,9.19
2022-12-23T08:02:17.199Z,9.25
2022-12-23T08:07:25.960Z,9.19
2022-12-23T08:12:34.967Z,9.25
2022-12-23T08:17:44.342Z,9.44
2022-12-23T08:22:53.249Z,9.5
2022-12-23T08:28:02.260Z,9.63
2022-12-23T08:33:11.340Z,9.69
2022-12-23T08:38:20.404Z,9.81
2022-12-23T08:43:35.409Z,9.88
2022-12-23T08:48:39.064Z,9.94
2022-12-23T08:53:47.232Z,10
2022-12-23T08:58:56.344Z,10.06
2022-12-23T09:04:05.545Z,10.13
2022-12-23T09:09:14.380Z,10.19
2022-12-23T09:14:23.327Z,10.19
2022-12-23T09:24:41.346Z,10.25
2022-12-23T09:34:59.208Z,10.25
2022-12-23T09:40:08.206Z,10.31
2022-12-23T09:55:13.699Z,10.63
2022-12-23T10:00:22.760Z,10.69
2022-12-23T10:05:31.712Z,10.75
2022-12-23T10:10:40.759Z,10.75
2022-12-23T10:20:58.864Z,10.81
2022-12-23T10:26:07.974Z,10.88
2022-12-23T10:31:39.030Z,10.81
2022-12-23T10:36:26.131Z,10.75
2022-12-23T10:41:35.177Z,10.69
2022-12-23T10:46:44.101Z,10.69
2022-12-23T10:51:53.110Z,10.69
2022-12-23T10:57:02.099Z,10.63
2022-12-23T11:02:11.310Z,10.69
2022-12-23T11:17:16.663Z,10.69
2022-12-23T11:22:25.652Z,10.75
2022-12-23T11:32:32.663Z,10.75
2022-12-23T11:37:41.620Z,10.75
2022-12-23T11:42:55.085Z,10.75
2022-12-23T11:47:59.708Z,10.69
2022-12-23T11:58:06.727Z,10.69
2022-12-23T12:03:18.749Z,10.69
2022-12-23T12:08:27.649Z,10.69
2022-12-23T12:13:39.537Z,10.69
2022-12-23T12:18:52.170Z,10.75
2022-12-23T12:24:15.063Z,10.75
2022-12-23T12:29:06.692Z,10.75
2022-12-23T12:34:15.820Z,10.81
2022-12-23T12:39:25.009Z,10.88
2022-12-23T12:44:33.733Z,10.88
2022-12-23T12:49:42.705Z,10.88
2022-12-23T12:54:51.670Z,10.94
2022-12-23T13:00:05.860Z,10.94
2022-12-23T13:05:09.783Z,11
2022-12-23T13:10:18.766Z,11.06
2022-12-23T13:15:27.892Z,11.06
2022-12-23T13:20:36.822Z,11.06
2022-12-23T13:25:45.607Z,11.06
2022-12-23T13:30:54.648Z,11.12
2022-12-23T13:36:05.915Z,11.19
2022-12-23T13:41:12.543Z,11.19
2022-12-23T13:46:21.566Z,11.25
2022-12-23T13:51:30.440Z,11.31
2022-12-23T13:56:39.369Z,11.38
2022-12-23T14:01:48.528Z,11.44
2022-12-23T14:06:57.376Z,11.5
2022-12-23T14:12:06.290Z,11.63
2022-12-23T14:17:15.314Z,11.63
2022-12-23T14:22:24.354Z,11.69
2022-12-23T14:27:33.403Z,11.69
2022-12-23T14:32:42.430Z,11.75
2022-12-23T14:37:51.269Z,11.75
2022-12-23T14:43:00.158Z,11.88
2022-12-23T14:53:07.297Z,11.88
2022-12-23T14:58:16.230Z,11.88
2022-12-23T15:03:25.358Z,11.94
2022-12-23T15:18:31.011Z,11.94
2022-12-23T15:23:43.139Z,12
2022-12-23T15:28:52.219Z,11.94
2022-12-23T15:34:03.318Z,12
2022-12-23T15:39:10.249Z,12
2022-12-23T15:44:19.260Z,12
2022-12-23T15:49:28.351Z,11.94
2022-12-23T15:54:37.519Z,12
2022-12-23T15:59:46.515Z,12
2022-12-23T16:04:55.581Z,12.06
2022-12-23T16:10:04.695Z,12.06
2022-12-23T16:15:13.387Z,12
2022-12-23T16:20:22.648Z,12.06
2022-12-23T16:25:31.566Z,12
2022-12-23T16:30:40.498Z,12
2022-12-23T16:35:49.423Z,11.94
2022-12-23T16:40:58.433Z,12
2022-12-23T16:46:07.579Z,11.94
2022-12-23T16:51:16.571Z,12
2022-12-23T16:56:25.451Z,12.06
2022-12-23T17:01:34.854Z,11.94
2022-12-23T17:06:43.706Z,11.81
2022-12-23T17:11:52.700Z,11.69
2022-12-23T17:22:10.384Z,11.44
2022-12-23T17:27:19.333Z,11.38
2022-12-23T17:32:28.296Z,11.44
2022-12-23T17:37:37.241Z,11.38
2022-12-23T17:42:46.235Z,11.44
2022-12-23T17:47:55.298Z,11.5
2022-12-23T17:53:04.357Z,11.56
2022-12-23T17:58:13.211Z,11.5
2022-12-23T18:03:22.295Z,11.63
2022-12-23T18:08:31.317Z,11.75
2022-12-23T18:13:40.247Z,12.06
2022-12-23T18:18:51.280Z,12.25
2022-12-23T18:24:00.533Z,12.44
2022-12-23T18:29:09.542Z,12.06
2022-12-23T18:34:18.439Z,11.81
2022-12-23T18:39:27.664Z,11.63
2022-12-23T18:44:36.477Z,11.63
2022-12-23T18:49:45.475Z,11.5
2022-12-23T18:54:54.502Z,11.56
2022-12-23T19:00:03.624Z,11.5
2022-12-23T19:05:12.435Z,11.5
2022-12-23T19:10:21.445Z,11.5
2022-12-23T19:15:30.468Z,11.44
2022-12-23T19:20:39.316Z,11.25
2022-12-23T19:25:54.736Z,11.19
2022-12-23T19:30:57.390Z,11.25
2022-12-23T19:36:06.330Z,11.19
2022-12-23T19:41:15.149Z,10.94
2022-12-23T19:46:24.356Z,11.06
2022-12-23T19:51:33.295Z,11.25
2022-12-23T19:56:42.337Z,11.12
2022-12-23T20:07:00.268Z,11.06
2022-12-23T20:12:09.226Z,11.12
2022-12-23T20:17:18.072Z,11
2022-12-23T20:22:27.106Z,11.12
2022-12-23T20:27:36.082Z,11
2022-12-23T20:32:45.000Z,11.12
2022-12-23T20:37:54.411Z,11.12
2022-12-23T20:43:03.427Z,11.06
2022-12-23T20:48:12.362Z,10.81
2022-12-23T20:53:21.364Z,10.88
2022-12-23T20:58:30.224Z,10.44
2022-12-23T21:03:39.360Z,10.13
2022-12-23T21:08:48.034Z,10.44
2022-12-23T21:14:01.192Z,10.63
2022-12-23T21:19:06.387Z,10.88
2022-12-23T21:24:15.309Z,10.75
2022-12-23T21:29:24.277Z,10.88
2022-12-23T21:34:33.097Z,10.88
2022-12-23T21:39:42.054Z,10.75
2022-12-23T21:44:51.061Z,11
2022-12-23T21:50:00.193Z,11
2022-12-23T21:55:08.995Z,10.88
2022-12-23T22:00:17.961Z,10.94
2022-12-23T22:05:26.748Z,10.69
2022-12-23T22:10:35.677Z,10.69
2022-12-23T22:15:44.866Z,10.5
2022-12-23T22:20:53.803Z,10.19
2022-12-23T22:26:02.812Z,10.31
2022-12-23T22:31:11.878Z,10.5
2022-12-23T22:36:20.846Z,10.25
2022-12-23T22:41:29.664Z,10.19
2022-12-23T22:46:38.924Z,10.38
2022-12-23T22:51:47.998Z,10.5
2022-12-23T22:56:57.007Z,10.88
2022-12-23T23:12:02.052Z,10.31
2022-12-23T23:17:10.970Z,10.38
2022-12-23T23:22:19.891Z,10.38
2022-12-23T23:27:28.720Z,10.06
2022-12-23T23:32:37.650Z,10.13
2022-12-23T23:37:46.606Z,9.94
2022-12-23T23:42:55.514Z,9.75
2022-12-23T23:48:04.380Z,9.69
2022-12-23T23:53:13.249Z,9.75
2022-12-23T23:58:22.217Z,9.69
